Time;durP1;ratioP1;P1;durP2;ratioP2;P2;SDS_P1;SDS_P2;PMS_P1;PMS_P2;Temp;Humidity;BMP_temperature;BMP_pressure;BME280_temperature;BME280_humidity;BME280_pressure;Samples;Min_cycle;Max_cycle;Signal;HPM_P1;HPM_P2
2022/01/09 00:01:16;;;;;;;;;5.00;2.50;;;;;-142.59;100.00;56100.38;4913701;28;49640;-68
2022/01/09 00:03:41;;;;;;;;;3.00;1.25;;;;;-142.59;100.00;56100.38;4913895;28;49931;-68
2022/01/09 00:06:08;;;;;;;;;4.25;3.50;;;;;-142.59;100.00;56100.38;4913421;28;50521;-68
2022/01/09 00:08:34;;;;;;;;;2.50;1.25;;;;;-142.59;100.00;56100.38;4913629;28;49786;-68
2022/01/09 00:10:59;;;;;;;;;1.75;1.00;;;;;-142.59;100.00;56100.38;4913970;28;50014;-68
2022/01/09 00:13:25;;;;;;;;;1.50;1.00;;;;;-142.59;100.00;56100.38;4912687;28;49801;-68
2022/01/09 00:15:50;;;;;;;;;3.00;2.00;;;;;-142.59;100.00;56100.38;4913609;28;50530;-68
2022/01/09 00:18:15;;;;;;;;;0.75;0.75;;;;;-142.59;100.00;56100.38;4913731;28;49892;-68
2022/01/09 00:20:41;;;;;;;;;4.50;2.75;;;;;-142.59;100.00;56100.38;4913560;28;49742;-68
2022/01/09 00:23:06;;;;;;;;;2.25;1.25;;;;;-142.59;100.00;56100.38;4913743;28;49905;-68
2022/01/09 00:25:32;;;;;;;;;1.00;0.00;;;;;-142.59;100.00;56100.38;4913431;28;50412;-68
2022/01/09 00:27:57;;;;;;;;;3.75;0.50;;;;;-142.59;100.00;56100.38;4913284;28;49673;-68
2022/01/09 00:30:23;;;;;;;;;5.75;2.00;;;;;-142.59;100.00;56100.38;4913752;28;49676;-68
2022/01/09 00:32:50;;;;;;;;;3.50;1.50;;;;;-142.59;100.00;56100.38;4913454;28;49932;-68
2022/01/09 00:35:16;;;;;;;;;4.50;2.00;;;;;-142.59;100.00;56100.38;4913476;28;50984;-68
2022/01/09 00:37:42;;;;;;;;;1.00;1.00;;;;;-142.59;100.00;56100.38;4913182;28;49675;-68
2022/01/09 00:40:10;;;;;;;;;1.00;1.00;;;;;-142.59;100.00;56100.38;4895717;28;49817;-68
2022/01/09 00:42:36;;;;;;;;;3.00;3.00;;;;;-142.59;100.00;56100.38;4895917;28;49742;-68
2022/01/09 00:45:03;;;;;;;;;5.75;3.50;;;;;-142.59;100.00;56100.38;4913295;28;50760;-68
2022/01/09 00:47:29;;;;;;;;;5.00;2.00;;;;;-142.59;100.00;56100.38;4895381;28;49799;-67
2022/01/09 00:49:54;;;;;;;;;1.25;1.25;;;;;-142.59;100.00;56100.38;4895895;28;50183;-68
2022/01/09 00:52:20;;;;;;;;;1.50;1.50;;;;;-142.59;100.00;56100.38;4913095;28;50035;-67
2022/01/09 00:54:45;;;;;;;;;1.75;1.50;;;;;-142.59;100.00;56100.38;4912771;28;50425;-67
2022/01/09 00:57:10;;;;;;;;;6.00;4.75;;;;;-142.59;100.00;56100.38;4912890;28;50485;-67
2022/01/09 00:59:36;;;;;;;;;5.50;4.00;;;;;-142.59;100.00;56100.38;4895580;28;49772;-67
2022/01/09 01:02:01;;;;;;;;;7.75;2.75;;;;;-142.59;100.00;56100.38;4912792;28;49823;-67
2022/01/09 01:04:27;;;;;;;;;1.50;1.50;;;;;-142.59;100.00;56100.38;4912605;28;50805;-67
2022/01/09 01:06:52;;;;;;;;;1.25;1.25;;;;;-142.59;100.00;56100.38;4892432;29;49845;-68
2022/01/09 01:09:20;;;;;;;;;1.25;1.25;;;;;-142.59;100.00;56100.38;4894775;28;49917;-68
2022/01/09 01:11:46;;;;;;;;;6.50;3.00;;;;;-142.59;100.00;56100.38;4894229;28;49883;-67
2022/01/09 01:14:12;;;;;;;;;1.25;1.25;;;;;-142.59;100.00;56100.38;4876876;29;50514;-68
2022/01/09 01:16:38;;;;;;;;;4.50;1.00;;;;;-142.59;100.00;56100.38;4894141;28;50006;-67
2022/01/09 01:19:04;;;;;;;;;5.00;2.00;;;;;-142.59;100.00;56100.38;4877267;29;49800;-67
2022/01/09 01:21:30;;;;;;;;;2.00;1.75;;;;;-142.59;100.00;56100.38;4894754;28;49730;-68
2022/01/09 01:23:56;;;;;;;;;5.00;2.50;;;;;-142.59;100.00;56100.38;4894650;28;49840;-67
2022/01/09 01:26:21;;;;;;;;;1.75;1.75;;;;;-142.59;100.00;56100.38;4897417;28;49660;-68
2022/01/09 01:28:46;;;;;;;;;2.25;1.75;;;;;-142.59;100.00;56100.38;4897256;28;49756;-67
2022/01/09 01:31:14;;;;;;;;;2.00;2.00;;;;;-142.59;100.00;56100.38;4897667;28;49796;-68
2022/01/09 01:33:40;;;;;;;;;0.75;0.75;;;;;-142.59;100.00;56100.38;4897269;28;50590;-67
2022/01/09 01:36:08;;;;;;;;;1.25;0.75;;;;;-142.59;100.00;56100.38;4896890;28;49685;-67
2022/01/09 01:38:37;;;;;;;;;0.50;0.50;;;;;-142.59;100.00;56100.38;4897304;28;49753;-67
2022/01/09 01:41:02;;;;;;;;;7.00;2.50;;;;;-142.59;100.00;56100.38;4897665;28;49572;-67
2022/01/09 01:43:28;;;;;;;;;2.00;2.00;;;;;-142.59;100.00;56100.38;4896711;28;50689;-68
2022/01/09 01:46:09;;;;;;;;;1.75;1.75;;;;;-142.59;100.00;56100.38;4897215;28;49800;-68
2022/01/09 01:48:34;;;;;;;;;2.00;1.00;;;;;-142.59;100.00;56100.38;4897201;28;49773;-68
2022/01/09 01:50:59;;;;;;;;;6.75;1.00;;;;;-142.59;100.00;56100.38;4897239;28;49551;-68
2022/01/09 01:53:25;;;;;;;;;3.25;1.75;;;;;-142.59;100.00;56100.38;4896553;28;49872;-68
2022/01/09 01:55:55;;;;;;;;;5.75;1.00;;;;;-142.59;100.00;56100.38;4896936;28;49527;-68
2022/01/09 01:58:23;;;;;;;;;3.75;0.75;;;;;-142.59;100.00;56100.38;4896681;28;49852;-68
2022/01/09 02:00:49;;;;;;;;;1.00;0.00;;;;;-142.59;100.00;56100.38;4910984;28;49873;-69
2022/01/09 02:03:14;;;;;;;;;2.00;2.00;;;;;-142.59;100.00;56100.38;4915187;28;50974;-68
2022/01/09 02:05:44;;;;;;;;;3.00;1.50;;;;;-142.59;100.00;56100.38;4915414;28;49850;-68
2022/01/09 02:08:09;;;;;;;;;1.75;1.25;;;;;-142.59;100.00;56100.38;4915472;28;49644;-67
2022/01/09 02:10:39;;;;;;;;;2.25;1.25;;;;;-142.59;100.00;56100.38;4915387;28;49893;-68
2022/01/09 02:13:04;;;;;;;;;1.50;1.00;;;;;-142.59;100.00;56100.38;4915032;28;50059;-68
2022/01/09 02:15:36;;;;;;;;;1.25;1.00;;;;;-142.59;100.00;56100.38;4897725;28;49699;-67
2022/01/09 02:18:06;;;;;;;;;2.75;1.00;;;;;-142.59;100.00;56100.38;4915507;28;49917;-68
2022/01/09 02:20:32;;;;;;;;;0.75;0.75;;;;;-142.59;100.00;56100.38;4915502;28;49659;-68
2022/01/09 02:22:58;;;;;;;;;7.00;1.00;;;;;-142.59;100.00;56100.38;4914990;28;49801;-67
2022/01/09 02:25:24;;;;;;;;;8.50;2.00;;;;;-142.59;100.00;56100.38;4897706;28;49883;-67
2022/01/09 02:27:49;;;;;;;;;1.00;1.00;;;;;-142.59;100.00;56100.38;4914874;28;49723;-67
2022/01/09 02:30:15;;;;;;;;;2.00;2.00;;;;;-142.59;100.00;56100.38;4915064;28;49756;-68
2022/01/09 02:32:40;;;;;;;;;0.75;0.75;;;;;-142.59;100.00;56100.38;4914883;28;50606;-68
2022/01/09 02:35:06;;;;;;;;;0.00;0.00;;;;;-142.59;100.00;56100.38;4897395;28;49814;-68
2022/01/09 02:37:31;;;;;;;;;1.00;1.00;;;;;-142.59;100.00;56100.38;4914517;28;49749;-68
2022/01/09 02:39:57;;;;;;;;;1.50;1.00;;;;;-142.59;100.00;56100.38;4915178;28;50274;-68
2022/01/09 02:42:26;;;;;;;;;2.00;0.00;;;;;-142.59;100.00;56100.38;4914451;28;50313;-68
2022/01/09 02:44:52;;;;;;;;;0.75;0.00;;;;;-142.59;100.00;56100.38;4914683;28;49690;-68
2022/01/09 02:47:20;;;;;;;;;0.00;0.00;;;;;-142.59;100.00;56100.38;4914709;28;50006;-68
2022/01/09 02:49:49;;;;;;;;;5.50;1.00;;;;;-142.59;100.00;56100.38;4914857;28;50085;-68
2022/01/09 02:52:32;;;;;;;;;0.00;0.00;;;;;-142.59;100.00;56100.38;4897144;28;51511;-68
2022/01/09 02:55:30;;;;;;;;;3.00;2.00;;;;;-142.59;100.00;56100.38;4914481;28;49804;-67
2022/01/09 02:57:54;;;;;;;;;0.75;0.75;;;;;-142.59;100.00;56100.38;4912446;28;49983;-67
2022/01/09 03:00:26;;;;;;;;;0.00;0.00;;;;;-142.59;100.00;56100.38;4914773;28;50090;-67
2022/01/09 03:02:52;;;;;;;;;0.00;0.00;;;;;-142.59;100.00;56100.38;4914610;28;50534;-68
2022/01/09 03:05:18;;;;;;;;;1.50;0.75;;;;;-142.59;100.00;56100.38;4897273;28;49590;-68
2022/01/09 03:07:45;;;;;;;;;2.50;0.50;;;;;-142.59;100.00;56100.38;4914830;28;50251;-67
2022/01/09 03:10:12;;;;;;;;;0.25;0.00;;;;;-142.59;100.00;56100.38;4914663;28;49738;-67
2022/01/09 03:12:37;;;;;;;;;0.50;0.00;;;;;-142.59;100.00;56100.38;4914097;28;50879;-67
2022/01/09 03:15:04;;;;;;;;;2.75;1.00;;;;;-142.59;100.00;56100.38;4897111;28;49848;-67
2022/01/09 03:17:30;;;;;;;;;1.00;1.00;;;;;-142.59;100.00;56100.38;4914337;28;49725;-67
2022/01/09 03:19:55;;;;;;;;;0.00;0.00;;;;;-142.59;100.00;56100.38;4914408;28;49665;-68
2022/01/09 03:22:21;;;;;;;;;0.50;0.50;;;;;-142.59;100.00;56100.38;4913971;28;50811;-67
2022/01/09 03:24:46;;;;;;;;;2.25;0.75;;;;;-142.59;100.00;56100.38;4914190;28;49781;-68
2022/01/09 03:27:12;;;;;;;;;1.00;1.00;;;;;-142.59;100.00;56100.38;4896615;28;49825;-67
2022/01/09 03:29:38;;;;;;;;;0.00;0.00;;;;;-142.59;100.00;56100.38;4914417;28;49902;-67
2022/01/09 03:32:05;;;;;;;;;1.25;0.25;;;;;-142.59;100.00;56100.38;4896557;28;51661;-68
2022/01/09 03:34:30;;;;;;;;;3.00;2.00;;;;;-142.59;100.00;56100.38;4913826;28;49801;-68
2022/01/09 03:36:55;;;;;;;;;1.00;0.50;;;;;-142.59;100.00;56100.38;4914233;28;49935;-68
2022/01/09 03:39:21;;;;;;;;;3.00;1.25;;;;;-142.59;100.00;56100.38;4896765;28;49689;-68
2022/01/09 03:41:46;;;;;;;;;3.75;0.75;;;;;-142.59;100.00;56100.38;4896236;28;50450;-68
2022/01/09 03:44:11;;;;;;;;;0.50;0.50;;;;;-142.59;100.00;56100.38;4914002;28;49700;-68
2022/01/09 03:46:37;;;;;;;;;0.00;0.00;;;;;-142.59;100.00;56100.38;4913798;28;49759;-69
2022/01/09 03:49:02;;;;;;;;;1.00;0.00;;;;;-142.59;100.00;56100.38;4912897;28;49602;-68
2022/01/09 03:51:32;;;;;;;;;4.00;1.75;;;;;-142.59;100.00;56100.38;4913572;28;50384;-68
2022/01/09 03:53:59;;;;;;;;;3.00;1.00;;;;;-142.59;100.00;56100.38;4913881;28;49840;-68
2022/01/09 03:56:24;;;;;;;;;2.00;0.50;;;;;-142.59;100.00;56100.38;4913390;28;49809;-67
2022/01/09 03:58:49;;;;;;;;;0.50;0.50;;;;;-142.59;100.00;56100.38;4913797;28;49622;-67
2022/01/09 04:01:15;;;;;;;;;2.75;0.00;;;;;-142.59;100.00;56100.38;4896302;28;51813;-68
2022/01/09 04:03:40;;;;;;;;;1.00;1.00;;;;;-142.59;100.00;56100.38;4913499;28;49748;-68
2022/01/09 04:06:05;;;;;;;;;1.25;1.25;;;;;-142.59;100.00;56100.38;4913387;28;49733;-68
2022/01/09 04:08:33;;;;;;;;;2.00;1.00;;;;;-142.59;100.00;56100.38;4913932;28;49701;-68
2022/01/09 04:11:00;;;;;;;;;2.50;1.00;;;;;-142.59;100.00;56100.38;4896214;28;50512;-68
2022/01/09 04:13:25;;;;;;;;;1.75;1.50;;;;;-142.59;100.00;56100.38;4913130;28;49622;-68
2022/01/09 04:15:50;;;;;;;;;2.00;0.75;;;;;-142.59;100.00;56100.38;4913613;28;49741;-68
2022/01/09 04:18:18;;;;;;;;;2.00;2.00;;;;;-142.59;100.00;56100.38;4913628;28;49869;-68
2022/01/09 04:20:44;;;;;;;;;1.00;0.00;;;;;-142.59;100.00;56100.38;4913165;28;51150;-68
2022/01/09 04:23:09;;;;;;;;;1.75;0.00;;;;;-142.59;100.00;56100.38;4913473;28;49726;-68
2022/01/09 04:25:35;;;;;;;;;2.50;1.25;;;;;-142.59;100.00;56100.38;4896279;28;49674;-69
2022/01/09 04:28:00;;;;;;;;;1.25;0.75;;;;;-142.59;100.00;56100.38;4913243;28;49657;-68
2022/01/09 04:30:26;;;;;;;;;0.75;0.00;;;;;-142.59;100.00;56100.38;4895961;28;50112;-68
2022/01/09 04:32:51;;;;;;;;;0.00;0.00;;;;;-142.59;100.00;56100.38;4913293;28;49756;-68
2022/01/09 04:35:16;;;;;;;;;3.00;1.00;;;;;-142.59;100.00;56100.38;4913272;28;49672;-67
2022/01/09 04:37:42;;;;;;;;;4.00;1.00;;;;;-142.59;100.00;56100.38;4913377;28;49714;-67
2022/01/09 04:40:10;;;;;;;;;2.25;1.00;;;;;-142.59;100.00;56100.38;4889492;28;52471;-68
2022/01/09 04:42:43;;;;;;;;;0.25;0.00;;;;;-142.59;100.00;56100.38;4906830;28;49725;-68
2022/01/09 04:45:11;;;;;;;;;2.00;1.50;;;;;-142.59;100.00;56100.38;4913044;28;49983;-68
2022/01/09 04:47:39;;;;;;;;;4.75;1.00;;;;;-142.59;100.00;56100.38;4913173;28;49803;-68
2022/01/09 04:50:05;;;;;;;;;0.00;0.00;;;;;-142.59;100.00;56100.38;4913129;28;51137;-68
2022/01/09 04:52:34;;;;;;;;;1.75;1.75;;;;;-142.59;100.00;56100.38;4913044;28;49840;-68
2022/01/09 04:55:01;;;;;;;;;1.00;0.00;;;;;-142.59;100.00;56100.38;4895902;28;49834;-67
2022/01/09 04:57:26;;;;;;;;;0.50;0.50;;;;;-142.59;100.00;56100.38;4895364;28;49870;-67
2022/01/09 04:59:52;;;;;;;;;0.25;0.25;;;;;-142.59;100.00;56100.38;4914607;28;49815;-68
2022/01/09 05:02:17;;;;;;;;;3.00;1.25;;;;;-142.59;100.00;56100.38;4916434;28;49810;-68
2022/01/09 05:04:42;;;;;;;;;0.25;0.00;;;;;-142.59;100.00;56100.38;4916500;28;49813;-68
2022/01/09 05:07:08;;;;;;;;;1.75;1.00;;;;;-142.59;100.00;56100.38;4916742;28;50302;-68
2022/01/09 05:09:33;;;;;;;;;2.00;2.00;;;;;-142.59;100.00;56100.38;4916041;28;50835;-68
2022/01/09 05:11:58;;;;;;;;;0.00;0.00;;;;;-142.59;100.00;56100.38;4916069;28;49845;-68
2022/01/09 05:14:24;;;;;;;;;1.75;1.00;;;;;-142.59;100.00;56100.38;4916307;28;49753;-68
2022/01/09 05:16:50;;;;;;;;;2.50;1.50;;;;;-142.59;100.00;56100.38;4916648;28;49684;-67
2022/01/09 05:19:19;;;;;;;;;1.25;0.25;;;;;-142.59;100.00;56100.38;4915904;28;50425;-68
2022/01/09 05:21:45;;;;;;;;;1.00;1.00;;;;;-142.59;100.00;56100.38;4898936;28;49844;-68
2022/01/09 05:24:11;;;;;;;;;0.00;0.00;;;;;-142.59;100.00;56100.38;4898267;28;50001;-68
2022/01/09 05:26:36;;;;;;;;;1.00;1.00;;;;;-142.59;100.00;56100.38;4916046;28;49878;-68
2022/01/09 05:29:02;;;;;;;;;1.75;0.50;;;;;-142.59;100.00;56100.38;4916249;28;51112;-68
2022/01/09 05:31:27;;;;;;;;;2.00;2.00;;;;;-142.59;100.00;56100.38;4916068;28;49775;-68
2022/01/09 05:33:53;;;;;;;;;0.75;0.75;;;;;-142.59;100.00;56100.38;4898721;28;49722;-68
2022/01/09 05:36:18;;;;;;;;;3.00;1.75;;;;;-142.59;100.00;56100.38;4916197;28;49800;-68
2022/01/09 05:38:44;;;;;;;;;1.25;1.00;;;;;-142.59;100.00;56100.38;4915847;28;49759;-68
2022/01/09 05:41:10;;;;;;;;;6.50;2.00;;;;;-142.59;100.00;56100.38;4915786;28;49793;-68
2022/01/09 05:43:36;;;;;;;;;6.00;2.00;;;;;-142.59;100.00;56100.38;4915656;28;49869;-68
2022/01/09 05:46:01;;;;;;;;;4.50;2.00;;;;;-142.59;100.00;56100.38;4898696;28;49737;-68
2022/01/09 05:48:26;;;;;;;;;1.00;1.00;;;;;-142.59;100.00;56100.38;4898486;28;51772;-68
2022/01/09 05:50:52;;;;;;;;;5.25;2.25;;;;;-142.59;100.00;56100.38;4915768;28;49616;-68
2022/01/09 05:53:17;;;;;;;;;1.50;1.00;;;;;-142.59;100.00;56100.38;4915886;28;49706;-68
2022/01/09 05:55:42;;;;;;;;;1.25;1.25;;;;;-142.59;100.00;56100.38;4915475;28;49963;-68
2022/01/09 05:58:08;;;;;;;;;2.00;2.00;;;;;-142.59;100.00;56100.38;4914975;28;49882;-68
2022/01/09 06:00:33;;;;;;;;;6.25;3.00;;;;;-142.59;100.00;56100.38;4915464;28;49868;-68
2022/01/09 06:02:59;;;;;;;;;2.00;0.00;;;;;-142.59;100.00;56100.38;4915754;28;49747;-68
2022/01/09 06:05:24;;;;;;;;;0.25;0.00;;;;;-142.59;100.00;56100.38;4915734;28;50049;-68
2022/01/09 06:07:50;;;;;;;;;5.00;2.25;;;;;-142.59;100.00;56100.38;4915232;28;50562;-68
2022/01/09 06:10:15;;;;;;;;;3.00;1.75;;;;;-142.59;100.00;56100.38;4914607;28;49741;-68
2022/01/09 06:12:41;;;;;;;;;6.00;5.25;;;;;-142.59;100.00;56100.38;4915024;28;49813;-68
2022/01/09 06:15:07;;;;;;;;;5.75;2.00;;;;;-142.59;100.00;56100.38;4915646;28;49744;-68
2022/01/09 06:17:37;;;;;;;;;4.00;2.50;;;;;-142.59;100.00;56100.38;4915237;28;49780;-68
2022/01/09 06:20:03;;;;;;;;;2.25;0.50;;;;;-142.59;100.00;56100.38;4897968;28;49815;-68
2022/01/09 06:22:28;;;;;;;;;0.00;0.00;;;;;-142.59;100.00;56100.38;4915254;28;49821;-68
2022/01/09 06:24:54;;;;;;;;;0.75;0.50;;;;;-142.59;100.00;56100.38;4898051;28;50234;-68
2022/01/09 06:27:22;;;;;;;;;3.00;1.25;;;;;-142.59;100.00;56100.38;4914576;28;50866;-69
2022/01/09 06:29:48;;;;;;;;;2.75;1.00;;;;;-142.59;100.00;56100.38;4915470;28;49849;-68
2022/01/09 06:32:14;;;;;;;;;2.50;1.25;;;;;-142.59;100.00;56100.38;4915110;28;49652;-68
2022/01/09 06:34:41;;;;;;;;;1.00;1.00;;;;;-142.59;100.00;56100.38;4915439;28;49894;-67
2022/01/09 06:37:06;;;;;;;;;2.00;0.50;;;;;-142.59;100.00;56100.38;4915101;28;49833;-68
2022/01/09 06:39:32;;;;;;;;;0.00;0.00;;;;;-142.59;100.00;56100.38;4915260;28;49956;-68
2022/01/09 06:41:57;;;;;;;;;1.75;0.00;;;;;-142.59;100.00;56100.38;4914774;28;49810;-68
2022/01/09 06:44:22;;;;;;;;;0.50;0.00;;;;;-142.59;100.00;56100.38;4915226;28;50034;-68
2022/01/09 06:46:48;;;;;;;;;0.50;0.25;;;;;-142.59;100.00;56100.38;4915004;28;50825;-68
2022/01/09 06:49:14;;;;;;;;;1.25;1.25;;;;;-142.59;100.00;56100.38;4914866;28;49797;-68
2022/01/09 06:51:40;;;;;;;;;1.75;1.75;;;;;-142.59;100.00;56100.38;4915364;28;49836;-68
2022/01/09 06:54:05;;;;;;;;;3.00;0.00;;;;;-142.59;100.00;56100.38;4915088;28;49991;-68
2022/01/09 06:56:31;;;;;;;;;2.00;1.00;;;;;-142.59;100.00;56100.38;4914296;28;50654;-68
2022/01/09 06:58:56;;;;;;;;;0.00;0.00;;;;;-142.59;100.00;56100.38;4914849;28;49771;-67
2022/01/09 07:01:22;;;;;;;;;3.50;0.75;;;;;-142.59;100.00;56100.38;4914628;28;49653;-68
2022/01/09 07:03:47;;;;;;;;;0.00;0.00;;;;;-142.59;100.00;56100.38;4897560;28;49782;-69
2022/01/09 07:06:12;;;;;;;;;2.00;0.00;;;;;-142.59;100.00;56100.38;4914462;28;50706;-68
2022/01/09 07:08:38;;;;;;;;;1.50;0.50;;;;;-142.59;100.00;56100.38;4897554;28;49703;-69
2022/01/09 07:11:05;;;;;;;;;1.00;0.00;;;;;-142.59;100.00;56100.38;4914462;28;49622;-68
2022/01/09 07:13:31;;;;;;;;;1.50;0.50;;;;;-142.59;100.00;56100.38;4914710;28;49751;-68
2022/01/09 07:15:56;;;;;;;;;0.00;0.00;;;;;-142.59;100.00;56100.38;4914606;28;50199;-68
2022/01/09 07:18:22;;;;;;;;;0.00;0.00;;;;;-142.59;100.00;56100.38;4897400;28;49871;-68
2022/01/09 07:20:51;;;;;;;;;0.00;0.00;;;;;-142.59;100.00;56100.38;4914446;28;49682;-68
2022/01/09 07:23:16;;;;;;;;;0.75;0.00;;;;;-142.59;100.00;56100.38;4914191;28;49948;-68
2022/01/09 07:25:44;;;;;;;;;0.00;0.00;;;;;-142.59;100.00;56100.38;4914284;28;50115;-68
2022/01/09 07:28:09;;;;;;;;;1.25;0.00;;;;;-142.59;100.00;56100.38;4896593;28;49740;-69
2022/01/09 07:30:35;;;;;;;;;0.00;0.00;;;;;-142.59;100.00;56100.38;4914759;28;50000;-69
2022/01/09 07:33:03;;;;;;;;;1.50;0.50;;;;;-142.59;100.00;56100.38;4914510;28;49500;-67
2022/01/09 07:35:28;;;;;;;;;1.00;1.00;;;;;-142.59;100.00;56100.38;4914193;28;50375;-68
2022/01/09 07:37:54;;;;;;;;;0.00;0.00;;;;;-142.59;100.00;56100.38;4914074;28;49909;-70
2022/01/09 07:40:20;;;;;;;;;1.00;1.00;;;;;-142.59;100.00;56100.38;4914167;28;49881;-68
2022/01/09 07:42:46;;;;;;;;;0.75;0.00;;;;;-142.59;100.00;56100.38;4914169;28;49713;-68
2022/01/09 07:45:12;;;;;;;;;0.00;0.00;;;;;-142.59;100.00;56100.38;4914252;28;50155;-68
2022/01/09 07:47:38;;;;;;;;;0.25;0.25;;;;;-142.59;100.00;56100.38;4914279;28;49858;-68
2022/01/09 07:50:05;;;;;;;;;1.75;1.75;;;;;-142.59;100.00;56100.38;4914124;28;49797;-68
2022/01/09 07:52:34;;;;;;;;;0.00;0.00;;;;;-142.59;100.00;56100.38;4913968;28;49938;-68
2022/01/09 07:55:00;;;;;;;;;6.00;3.00;;;;;-142.59;100.00;56100.38;4913657;28;50666;-68
2022/01/09 07:57:26;;;;;;;;;2.00;2.00;;;;;-142.59;100.00;56100.38;4913577;28;49844;-67
2022/01/09 07:59:51;;;;;;;;;0.50;0.50;;;;;-142.59;100.00;56100.38;4913635;28;49905;-68
2022/01/09 08:02:17;;;;;;;;;1.00;1.00;;;;;-142.59;100.00;56100.38;4914091;28;49675;-68
2022/01/09 08:04:45;;;;;;;;;0.75;0.75;;;;;-142.59;100.00;56100.38;4913816;28;50510;-68
2022/01/09 08:07:10;;;;;;;;;2.25;1.00;;;;;-142.59;100.00;56100.38;4912145;28;49727;-68
2022/01/09 08:09:35;;;;;;;;;0.50;0.50;;;;;-142.59;100.00;56100.38;4913681;28;49599;-68
2022/01/09 08:12:01;;;;;;;;;2.00;2.00;;;;;-142.59;100.00;56100.38;4913713;28;49645;-68
2022/01/09 08:14:26;;;;;;;;;1.00;1.00;;;;;-142.59;100.00;56100.38;4896266;28;50727;-68
2022/01/09 08:16:51;;;;;;;;;1.25;1.00;;;;;-142.59;100.00;56100.38;4913630;28;49797;-68
2022/01/09 08:19:17;;;;;;;;;1.00;1.00;;;;;-142.59;100.00;56100.38;4913949;28;50271;-68
2022/01/09 08:21:42;;;;;;;;;1.00;1.00;;;;;-142.59;100.00;56100.38;4913696;28;49874;-68
2022/01/09 08:24:08;;;;;;;;;1.00;0.25;;;;;-142.59;100.00;56100.38;4913490;28;50691;-68
2022/01/09 08:26:33;;;;;;;;;1.00;1.00;;;;;-142.59;100.00;56100.38;4913537;28;49796;-68
2022/01/09 08:28:58;;;;;;;;;0.00;0.00;;;;;-142.59;100.00;56100.38;4913473;28;49803;-68
2022/01/09 08:31:26;;;;;;;;;0.25;0.25;;;;;-142.59;100.00;56100.38;4913491;28;49711;-68
2022/01/09 08:33:52;;;;;;;;;2.00;2.00;;;;;-142.59;100.00;56100.38;4912631;28;50758;-68
2022/01/09 08:36:17;;;;;;;;;0.75;0.75;;;;;-142.59;100.00;56100.38;4913225;28;49642;-68
2022/01/09 08:38:43;;;;;;;;;1.00;0.00;;;;;-142.59;100.00;56100.38;4913470;28;49918;-68
2022/01/09 08:41:08;;;;;;;;;1.75;0.75;;;;;-142.59;100.00;56100.38;4913369;28;49678;-68
2022/01/09 08:43:36;;;;;;;;;1.25;1.25;;;;;-142.59;100.00;56100.38;4913155;28;50837;-68
2022/01/09 08:46:02;;;;;;;;;0.50;0.50;;;;;-142.59;100.00;56100.38;4896142;28;50075;-68
2022/01/09 08:48:27;;;;;;;;;0.00;0.00;;;;;-142.59;100.00;56100.38;4896157;28;49971;-67
2022/01/09 08:50:52;;;;;;;;;0.25;0.25;;;;;-142.59;100.00;56100.38;4895980;28;49672;-67
2022/01/09 08:53:26;;;;;;;;;0.00;0.00;;;;;-142.59;100.00;56100.38;4913100;28;50692;-67
2022/01/09 08:55:51;;;;;;;;;1.25;0.25;;;;;-142.59;100.00;56100.38;4912956;28;49611;-68
2022/01/09 08:58:17;;;;;;;;;1.50;0.75;;;;;-142.59;100.00;56100.38;4912788;28;49736;-68
2022/01/09 09:00:42;;;;;;;;;0.25;0.25;;;;;-142.59;100.00;56100.38;4913335;28;49820;-69
2022/01/09 09:03:08;;;;;;;;;1.00;0.75;;;;;-142.59;100.00;56100.38;4912857;28;49867;-70
2022/01/09 09:05:43;;;;;;;;;0.25;0.00;;;;;-142.59;100.00;56100.38;4913067;28;49710;-74
2022/01/09 09:08:08;;;;;;;;;0.75;0.75;;;;;-142.59;100.00;56100.38;4913055;28;49826;-71
2022/01/09 09:10:34;;;;;;;;;1.75;0.75;;;;;-142.59;100.00;56100.38;4896136;28;49952;-71
2022/01/09 09:12:59;;;;;;;;;2.00;2.00;;;;;-142.59;100.00;56100.38;4912622;28;51135;-71
2022/01/09 09:15:24;;;;;;;;;0.75;0.00;;;;;-142.59;100.00;56100.38;4912924;28;49690;-73
2022/01/09 09:17:50;;;;;;;;;2.50;0.00;;;;;-142.59;100.00;56100.38;4895800;28;50059;-73
2022/01/09 09:20:15;;;;;;;;;5.00;2.00;;;;;-142.59;100.00;56100.38;4913464;28;49920;-76
2022/01/09 09:22:41;;;;;;;;;1.75;1.00;;;;;-142.59;100.00;56100.38;4912704;28;49961;-72
2022/01/09 09:25:06;;;;;;;;;15.00;15.00;;;;;-142.59;100.00;56100.38;4895324;28;49811;-67
2022/01/09 09:27:32;;;;;;;;;7.00;7.00;;;;;-142.59;100.00;56100.38;4912777;28;49879;-69
2022/01/09 09:30:03;;;;;;;;;3.00;2.00;;;;;-142.59;100.00;56100.38;4913196;28;49913;-72
2022/01/09 09:32:29;;;;;;;;;1.75;1.75;;;;;-142.59;100.00;56100.38;4895268;28;50862;-68
2022/01/09 09:34:55;;;;;;;;;7.75;5.50;;;;;-142.59;100.00;56100.38;4912774;28;49921;-69
2022/01/09 09:37:21;;;;;;;;;3.75;2.75;;;;;-142.59;100.00;56100.38;4895313;28;49818;-69
2022/01/09 09:39:48;;;;;;;;;3.00;3.00;;;;;-142.59;100.00;56100.38;4912812;28;49892;-69
2022/01/09 09:42:15;;;;;;;;;2.25;2.25;;;;;-142.59;100.00;56100.38;4912172;28;49959;-68
2022/01/09 09:44:40;;;;;;;;;3.00;2.00;;;;;-142.59;100.00;56100.38;4895316;28;49747;-68
2022/01/09 09:47:06;;;;;;;;;4.50;2.00;;;;;-142.59;100.00;56100.38;4915573;28;49983;-68
2022/01/09 09:49:32;;;;;;;;;1.50;1.50;;;;;-142.59;100.00;56100.38;4898864;28;50003;-67
2022/01/09 09:51:57;;;;;;;;;1.25;1.25;;;;;-142.59;100.00;56100.38;4915799;28;51012;-65
2022/01/09 09:54:25;;;;;;;;;1.75;1.75;;;;;-142.59;100.00;56100.38;4898934;28;49694;-73
2022/01/09 09:56:52;;;;;;;;;3.00;2.00;;;;;-142.59;100.00;56100.38;4909516;28;50007;-83
2022/01/09 09:59:34;;;;;;;;;1.25;1.25;;;;;-142.59;100.00;56100.38;4909404;28;49725;-74
2022/01/09 10:02:00;;;;;;;;;1.00;1.00;;;;;-142.59;100.00;56100.38;4915414;28;49888;-79
2022/01/09 10:04:25;;;;;;;;;1.00;1.00;;;;;-142.59;100.00;56100.38;4898774;28;50329;-74
2022/01/09 10:06:51;;;;;;;;;1.25;1.25;;;;;-142.59;100.00;56100.38;4915507;28;49686;-70
2022/01/09 10:09:21;;;;;;;;;1.75;1.75;;;;;-142.59;100.00;56100.38;4915723;28;49786;-68
2022/01/09 10:12:03;;;;;;;;;2.25;2.25;;;;;-142.59;100.00;56100.38;4914973;28;50124;-72
2022/01/09 10:14:32;;;;;;;;;1.50;1.50;;;;;-142.59;100.00;56100.38;4898078;28;49791;-71
2022/01/09 10:17:12;;;;;;;;;1.75;1.75;;;;;-142.59;100.00;56100.38;4911359;28;49814;-70
2022/01/09 10:19:41;;;;;;;;;4.25;2.50;;;;;-142.59;100.00;56100.38;4916166;28;50253;-70
2022/01/09 10:22:06;;;;;;;;;1.00;1.00;;;;;-142.59;100.00;56100.38;4921455;28;50518;-66
2022/01/09 10:24:32;;;;;;;;;2.50;1.75;;;;;-142.59;100.00;56100.38;4922747;28;49293;-64
2022/01/09 10:26:57;;;;;;;;;2.00;1.50;;;;;-142.59;100.00;56100.38;4923533;28;50174;-68
2022/01/09 10:29:22;;;;;;;;;1.25;1.25;;;;;-142.59;100.00;56100.38;4908513;28;49944;-67
2022/01/09 10:31:51;;;;;;;;;3.00;2.00;;;;;-142.59;100.00;56100.38;4913829;28;50055;-67
2022/01/09 10:34:17;;;;;;;;;7.00;5.25;;;;;-142.59;100.00;56100.38;4913377;28;50147;-67
2022/01/09 10:36:48;;;;;;;;;1.00;0.00;;;;;-142.59;100.00;56100.38;4918919;28;49691;-69
2022/01/09 10:39:17;;;;;;;;;0.00;0.00;;;;;-142.59;100.00;56100.38;4920958;28;49607;-68
2022/01/09 10:41:56;;;;;;;;;0.75;0.50;;;;;-142.59;100.00;56100.38;4900146;28;51973;-67
2022/01/09 10:44:27;;;;;;;;;2.25;1.75;;;;;-142.59;100.00;56100.38;4914399;28;49703;-69
2022/01/09 10:47:01;;;;;;;;;2.00;1.25;;;;;-142.59;100.00;56100.38;4900921;28;49660;-67
2022/01/09 10:49:48;;;;;;;;;5.00;5.00;;;;;-142.59;100.00;56100.38;4915454;28;49693;-67
2022/01/09 10:52:29;;;;;;;;;5.00;5.00;;;;;-142.59;100.00;56100.38;4903573;28;51565;-68
2022/01/09 10:54:57;;;;;;;;;2.00;2.00;;;;;-142.59;100.00;56100.38;4920166;28;49799;-68
2022/01/09 10:57:25;;;;;;;;;2.75;2.75;;;;;-142.59;100.00;56100.38;4902202;28;49853;-66
2022/01/09 10:59:51;;;;;;;;;6.25;6.00;;;;;-142.59;100.00;56100.38;4914676;28;49910;-68
2022/01/09 11:02:18;;;;;;;;;6.25;3.50;;;;;-142.59;100.00;56100.38;4917773;28;49842;-67
2022/01/09 11:04:46;;;;;;;;;1.50;1.50;;;;;-142.59;100.00;56100.38;4922018;28;49556;-69
2022/01/09 11:07:12;;;;;;;;;2.25;2.00;;;;;-142.59;100.00;56100.38;4900871;28;49873;-67